sensor_id;sensor_type;location;lat;lon;timestamp;P1;durP1;ratioP1;P2;durP2;ratioP2
79702;SDS011;69172;52.352;5.006;2023-08-20T00:01:09;11.20;;;2.63;;
79702;SDS011;69172;52.352;5.006;2023-08-20T00:03:37;12.55;;;4.13;;
79702;SDS011;69172;52.352;5.006;2023-08-20T00:06:04;13.68;;;3.75;;
79702;SDS011;69172;52.352;5.006;2023-08-20T00:08:30;8.10;;;2.58;;
79702;SDS011;69172;52.352;5.006;2023-08-20T00:10:55;12.10;;;3.25;;
79702;SDS011;69172;52.352;5.006;2023-08-20T00:13:21;13.23;;;3.17;;
79702;SDS011;69172;52.352;5.006;2023-08-20T00:15:46;12.65;;;3.28;;
79702;SDS011;69172;52.352;5.006;2023-08-20T00:18:12;12.75;;;4.70;;
79702;SDS011;69172;52.352;5.006;2023-08-20T00:20:38;10.85;;;3.30;;
79702;SDS011;69172;52.352;5.006;2023-08-20T00:23:05;14.77;;;3.85;;
79702;SDS011;69172;52.352;5.006;2023-08-20T00:25:31;10.00;;;3.17;;
79702;SDS011;69172;52.352;5.006;2023-08-20T00:27:56;13.00;;;3.55;;
79702;SDS011;69172;52.352;5.006;2023-08-20T00:30:22;12.35;;;4.00;;
79702;SDS011;69172;52.352;5.006;2023-08-20T00:32:47;10.20;;;3.47;;
79702;SDS011;69172;52.352;5.006;2023-08-20T00:35:27;11.20;;;3.22;;
79702;SDS011;69172;52.352;5.006;2023-08-20T00:37:52;10.57;;;3.65;;
79702;SDS011;69172;52.352;5.006;2023-08-20T00:40:17;9.80;;;2.90;;
79702;SDS011;69172;52.352;5.006;2023-08-20T00:42:43;12.90;;;3.60;;
79702;SDS011;69172;52.352;5.006;2023-08-20T00:45:08;16.10;;;3.38;;
79702;SDS011;69172;52.352;5.006;2023-08-20T00:47:37;12.70;;;3.17;;
79702;SDS011;69172;52.352;5.006;2023-08-20T00:50:03;12.65;;;2.88;;
79702;SDS011;69172;52.352;5.006;2023-08-20T00:52:33;10.63;;;2.85;;
79702;SDS011;69172;52.352;5.006;2023-08-20T00:54:59;11.43;;;2.65;;
79702;SDS011;69172;52.352;5.006;2023-08-20T00:57:25;12.05;;;3.42;;
79702;SDS011;69172;52.352;5.006;2023-08-20T00:59:53;10.88;;;2.85;;
79702;SDS011;69172;52.352;5.006;2023-08-20T01:02:20;9.32;;;2.95;;
79702;SDS011;69172;52.352;5.006;2023-08-20T01:04:46;9.18;;;3.08;;
79702;SDS011;69172;52.352;5.006;2023-08-20T01:12:16;9.43;;;2.70;;
79702;SDS011;69172;52.352;5.006;2023-08-20T01:14:42;9.57;;;2.33;;
79702;SDS011;69172;52.352;5.006;2023-08-20T01:17:07;14.65;;;2.47;;
79702;SDS011;69172;52.352;5.006;2023-08-20T01:19:33;10.20;;;2.63;;
79702;SDS011;69172;52.352;5.006;2023-08-20T01:30:31;11.10;;;2.60;;
79702;SDS011;69172;52.352;5.006;2023-08-20T01:32:58;12.10;;;3.05;;
79702;SDS011;69172;52.352;5.006;2023-08-20T01:35:24;13.43;;;2.65;;
79702;SDS011;69172;52.352;5.006;2023-08-20T01:37:51;9.05;;;2.80;;
79702;SDS011;69172;52.352;5.006;2023-08-20T01:40:17;9.50;;;2.50;;
79702;SDS011;69172;52.352;5.006;2023-08-20T01:42:42;11.10;;;2.85;;
79702;SDS011;69172;52.352;5.006;2023-08-20T01:45:08;12.73;;;3.03;;
79702;SDS011;69172;52.352;5.006;2023-08-20T01:47:34;12.32;;;2.50;;
79702;SDS011;69172;52.352;5.006;2023-08-20T01:49:59;13.23;;;2.33;;
79702;SDS011;69172;52.352;5.006;2023-08-20T01:52:25;14.45;;;2.78;;
79702;SDS011;69172;52.352;5.006;2023-08-20T01:54:50;8.82;;;2.30;;
79702;SDS011;69172;52.352;5.006;2023-08-20T01:57:18;11.85;;;2.47;;
79702;SDS011;69172;52.352;5.006;2023-08-20T01:59:44;11.40;;;2.90;;
79702;SDS011;69172;52.352;5.006;2023-08-20T02:02:09;11.43;;;2.70;;
79702;SDS011;69172;52.352;5.006;2023-08-20T02:04:35;13.45;;;2.50;;
79702;SDS011;69172;52.352;5.006;2023-08-20T02:07:00;10.77;;;2.70;;
79702;SDS011;69172;52.352;5.006;2023-08-20T02:09:25;12.50;;;2.75;;
79702;SDS011;69172;52.352;5.006;2023-08-20T02:11:51;8.50;;;2.13;;
79702;SDS011;69172;52.352;5.006;2023-08-20T02:14:17;14.25;;;2.67;;
79702;SDS011;69172;52.352;5.006;2023-08-20T02:16:43;14.18;;;2.58;;
79702;SDS011;69172;52.352;5.006;2023-08-20T02:19:08;11.63;;;2.70;;
79702;SDS011;69172;52.352;5.006;2023-08-20T02:21:34;12.63;;;2.60;;
79702;SDS011;69172;52.352;5.006;2023-08-20T02:24:00;10.60;;;2.70;;
79702;SDS011;69172;52.352;5.006;2023-08-20T02:26:25;11.30;;;3.22;;
79702;SDS011;69172;52.352;5.006;2023-08-20T02:28:51;9.55;;;2.63;;
79702;SDS011;69172;52.352;5.006;2023-08-20T02:31:16;13.45;;;3.22;;
79702;SDS011;69172;52.352;5.006;2023-08-20T02:33:43;10.95;;;2.80;;
79702;SDS011;69172;52.352;5.006;2023-08-20T02:36:09;13.98;;;3.63;;
79702;SDS011;69172;52.352;5.006;2023-08-20T02:38:41;10.32;;;2.55;;
79702;SDS011;69172;52.352;5.006;2023-08-20T02:41:06;10.43;;;3.03;;
79702;SDS011;69172;52.352;5.006;2023-08-20T02:43:32;16.95;;;3.42;;
79702;SDS011;69172;52.352;5.006;2023-08-20T02:45:57;11.63;;;3.17;;
79702;SDS011;69172;52.352;5.006;2023-08-20T02:48:22;9.20;;;2.90;;
79702;SDS011;69172;52.352;5.006;2023-08-20T02:50:52;8.70;;;2.55;;
79702;SDS011;69172;52.352;5.006;2023-08-20T02:53:19;9.93;;;2.90;;
79702;SDS011;69172;52.352;5.006;2023-08-20T02:55:44;14.07;;;2.78;;
79702;SDS011;69172;52.352;5.006;2023-08-20T02:58:10;10.57;;;3.05;;
79702;SDS011;69172;52.352;5.006;2023-08-20T03:00:35;14.20;;;3.05;;
79702;SDS011;69172;52.352;5.006;2023-08-20T03:03:01;9.82;;;3.42;;
79702;SDS011;69172;52.352;5.006;2023-08-20T03:05:31;15.25;;;3.28;;
79702;SDS011;69172;52.352;5.006;2023-08-20T03:07:57;16.73;;;3.95;;
79702;SDS011;69172;52.352;5.006;2023-08-20T03:10:22;12.23;;;3.17;;
79702;SDS011;69172;52.352;5.006;2023-08-20T03:12:48;9.85;;;2.80;;
79702;SDS011;69172;52.352;5.006;2023-08-20T03:15:13;10.55;;;3.13;;
79702;SDS011;69172;52.352;5.006;2023-08-20T03:17:39;11.13;;;2.60;;
79702;SDS011;69172;52.352;5.006;2023-08-20T03:20:04;11.40;;;3.00;;
79702;SDS011;69172;52.352;5.006;2023-08-20T03:22:31;12.57;;;2.70;;
79702;SDS011;69172;52.352;5.006;2023-08-20T03:24:57;10.48;;;2.60;;
79702;SDS011;69172;52.352;5.006;2023-08-20T03:27:22;10.95;;;3.83;;
79702;SDS011;69172;52.352;5.006;2023-08-20T03:29:48;13.82;;;2.80;;
79702;SDS011;69172;52.352;5.006;2023-08-20T03:32:13;12.32;;;3.25;;
79702;SDS011;69172;52.352;5.006;2023-08-20T03:34:39;11.07;;;2.58;;
79702;SDS011;69172;52.352;5.006;2023-08-20T03:37:04;12.32;;;2.70;;
79702;SDS011;69172;52.352;5.006;2023-08-20T03:39:30;11.60;;;2.30;;
79702;SDS011;69172;52.352;5.006;2023-08-20T03:41:58;12.30;;;3.30;;
79702;SDS011;69172;52.352;5.006;2023-08-20T03:44:24;8.02;;;2.60;;
79702;SDS011;69172;52.352;5.006;2023-08-20T03:46:49;15.38;;;2.72;;
79702;SDS011;69172;52.352;5.006;2023-08-20T03:49:15;12.40;;;2.80;;
79702;SDS011;69172;52.352;5.006;2023-08-20T03:51:40;15.88;;;3.00;;
79702;SDS011;69172;52.352;5.006;2023-08-20T03:54:07;12.95;;;2.70;;
79702;SDS011;69172;52.352;5.006;2023-08-20T03:56:33;9.95;;;2.83;;
79702;SDS011;69172;52.352;5.006;2023-08-20T03:58:58;13.85;;;3.05;;
79702;SDS011;69172;52.352;5.006;2023-08-20T04:01:24;10.85;;;2.72;;
79702;SDS011;69172;52.352;5.006;2023-08-20T04:03:50;9.85;;;2.63;;
79702;SDS011;69172;52.352;5.006;2023-08-20T04:06:15;16.02;;;2.95;;
79702;SDS011;69172;52.352;5.006;2023-08-20T04:08:41;9.48;;;2.78;;
79702;SDS011;69172;52.352;5.006;2023-08-20T04:11:07;13.20;;;3.20;;
79702;SDS011;69172;52.352;5.006;2023-08-20T04:13:32;15.25;;;4.10;;
79702;SDS011;69172;52.352;5.006;2023-08-20T04:15:58;10.02;;;3.13;;
79702;SDS011;69172;52.352;5.006;2023-08-20T04:18:23;10.27;;;3.45;;
79702;SDS011;69172;52.352;5.006;2023-08-20T04:20:52;12.75;;;3.10;;
79702;SDS011;69172;52.352;5.006;2023-08-20T04:23:18;13.35;;;3.08;;
79702;SDS011;69172;52.352;5.006;2023-08-20T04:25:44;11.15;;;2.88;;
79702;SDS011;69172;52.352;5.006;2023-08-20T04:28:10;13.15;;;2.97;;
79702;SDS011;69172;52.352;5.006;2023-08-20T04:30:36;9.80;;;3.10;;
79702;SDS011;69172;52.352;5.006;2023-08-20T04:33:02;16.40;;;3.38;;
79702;SDS011;69172;52.352;5.006;2023-08-20T04:35:28;12.77;;;3.47;;
79702;SDS011;69172;52.352;5.006;2023-08-20T04:37:53;16.75;;;3.33;;
79702;SDS011;69172;52.352;5.006;2023-08-20T04:40:19;14.65;;;3.72;;
79702;SDS011;69172;52.352;5.006;2023-08-20T04:42:44;11.85;;;3.88;;
79702;SDS011;69172;52.352;5.006;2023-08-20T04:45:09;13.52;;;3.75;;
79702;SDS011;69172;52.352;5.006;2023-08-20T04:47:35;8.80;;;3.22;;
79702;SDS011;69172;52.352;5.006;2023-08-20T04:50:02;13.70;;;3.45;;
79702;SDS011;69172;52.352;5.006;2023-08-20T04:52:27;13.77;;;3.67;;
79702;SDS011;69172;52.352;5.006;2023-08-20T04:54:53;13.88;;;3.85;;
79702;SDS011;69172;52.352;5.006;2023-08-20T04:57:18;11.02;;;3.38;;
79702;SDS011;69172;52.352;5.006;2023-08-20T04:59:46;12.23;;;3.30;;
79702;SDS011;69172;52.352;5.006;2023-08-20T05:02:17;11.27;;;3.60;;
79702;SDS011;69172;52.352;5.006;2023-08-20T05:04:43;15.50;;;3.80;;
79702;SDS011;69172;52.352;5.006;2023-08-20T05:07:08;13.98;;;4.00;;
79702;SDS011;69172;52.352;5.006;2023-08-20T05:09:34;13.77;;;3.95;;
79702;SDS011;69172;52.352;5.006;2023-08-20T05:11:59;11.57;;;3.55;;
79702;SDS011;69172;52.352;5.006;2023-08-20T05:14:25;12.70;;;4.10;;
79702;SDS011;69172;52.352;5.006;2023-08-20T05:16:50;14.02;;;4.30;;
79702;SDS011;69172;52.352;5.006;2023-08-20T05:19:15;13.25;;;3.78;;
79702;SDS011;69172;52.352;5.006;2023-08-20T05:21:41;14.02;;;4.43;;
79702;SDS011;69172;52.352;5.006;2023-08-20T05:24:06;15.52;;;4.20;;
79702;SDS011;69172;52.352;5.006;2023-08-20T05:26:32;12.00;;;3.80;;
79702;SDS011;69172;52.352;5.006;2023-08-20T05:28:57;13.38;;;4.30;;
79702;SDS011;69172;52.352;5.006;2023-08-20T05:31:22;9.32;;;3.38;;
79702;SDS011;69172;52.352;5.006;2023-08-20T05:33:48;14.20;;;3.90;;
79702;SDS011;69172;52.352;5.006;2023-08-20T05:36:14;12.10;;;3.55;;
79702;SDS011;69172;52.352;5.006;2023-08-20T05:38:39;11.55;;;3.50;;
79702;SDS011;69172;52.352;5.006;2023-08-20T05:41:07;12.95;;;3.88;;
79702;SDS011;69172;52.352;5.006;2023-08-20T05:43:32;17.50;;;4.72;;
79702;SDS011;69172;52.352;5.006;2023-08-20T05:45:58;11.63;;;3.67;;
79702;SDS011;69172;52.352;5.006;2023-08-20T05:48:23;13.32;;;3.50;;
79702;SDS011;69172;52.352;5.006;2023-08-20T05:50:49;18.85;;;4.07;;
79702;SDS011;69172;52.352;5.006;2023-08-20T05:53:14;13.40;;;3.58;;
79702;SDS011;69172;52.352;5.006;2023-08-20T05:55:39;13.13;;;3.60;;
79702;SDS011;69172;52.352;5.006;2023-08-20T05:58:05;15.43;;;3.90;;
79702;SDS011;69172;52.352;5.006;2023-08-20T06:00:30;14.93;;;3.95;;
79702;SDS011;69172;52.352;5.006;2023-08-20T06:02:57;13.48;;;4.72;;
79702;SDS011;69172;52.352;5.006;2023-08-20T06:05:22;12.90;;;3.78;;
79702;SDS011;69172;52.352;5.006;2023-08-20T06:07:48;15.02;;;4.38;;
79702;SDS011;69172;52.352;5.006;2023-08-20T06:10:13;15.23;;;3.95;;
79702;SDS011;69172;52.352;5.006;2023-08-20T06:12:38;12.55;;;3.85;;
79702;SDS011;69172;52.352;5.006;2023-08-20T06:15:04;14.13;;;4.22;;
79702;SDS011;69172;52.352;5.006;2023-08-20T06:17:30;14.02;;;3.85;;
79702;SDS011;69172;52.352;5.006;2023-08-20T06:19:57;14.50;;;3.75;;
79702;SDS011;69172;52.352;5.006;2023-08-20T06:22:23;12.32;;;3.78;;
79702;SDS011;69172;52.352;5.006;2023-08-20T06:24:49;13.40;;;3.67;;
79702;SDS011;69172;52.352;5.006;2023-08-20T06:27:15;15.77;;;3.95;;
79702;SDS011;69172;52.352;5.006;2023-08-20T06:29:40;13.40;;;3.70;;
79702;SDS011;69172;52.352;5.006;2023-08-20T06:32:05;13.48;;;3.85;;
79702;SDS011;69172;52.352;5.006;2023-08-20T06:34:31;13.02;;;3.97;;
79702;SDS011;69172;52.352;5.006;2023-08-20T06:36:58;16.98;;;4.05;;
79702;SDS011;69172;52.352;5.006;2023-08-20T06:39:23;15.10;;;4.07;;
79702;SDS011;69172;52.352;5.006;2023-08-20T06:41:49;13.88;;;3.47;;
79702;SDS011;69172;52.352;5.006;2023-08-20T06:44:14;16.45;;;3.50;;
79702;SDS011;69172;52.352;5.006;2023-08-20T06:46:40;14.13;;;3.88;;
79702;SDS011;69172;52.352;5.006;2023-08-20T06:49:05;13.82;;;3.65;;
79702;SDS011;69172;52.352;5.006;2023-08-20T06:51:31;14.15;;;3.38;;
79702;SDS011;69172;52.352;5.006;2023-08-20T06:53:56;13.68;;;3.83;;
79702;SDS011;69172;52.352;5.006;2023-08-20T06:56:22;18.00;;;3.97;;
79702;SDS011;69172;52.352;5.006;2023-08-20T06:58:47;12.27;;;3.83;;
79702;SDS011;69172;52.352;5.006;2023-08-20T07:01:13;16.20;;;4.28;;
79702;SDS011;69172;52.352;5.006;2023-08-20T07:03:42;15.60;;;3.90;;
79702;SDS011;69172;52.352;5.006;2023-08-20T07:06:08;15.15;;;3.85;;
79702;SDS011;69172;52.352;5.006;2023-08-20T07:08:35;13.40;;;3.22;;
79702;SDS011;69172;52.352;5.006;2023-08-20T07:11:01;16.20;;;3.80;;
79702;SDS011;69172;52.352;5.006;2023-08-20T07:13:27;14.07;;;3.42;;
79702;SDS011;69172;52.352;5.006;2023-08-20T07:15:53;12.00;;;3.70;;
79702;SDS011;69172;52.352;5.006;2023-08-20T07:18:20;13.77;;;3.75;;
79702;SDS011;69172;52.352;5.006;2023-08-20T07:20:45;15.05;;;3.60;;
79702;SDS011;69172;52.352;5.006;2023-08-20T07:23:11;12.82;;;3.75;;
79702;SDS011;69172;52.352;5.006;2023-08-20T07:25:37;13.32;;;3.65;;
79702;SDS011;69172;52.352;5.006;2023-08-20T07:28:07;17.10;;;3.38;;
79702;SDS011;69172;52.352;5.006;2023-08-20T07:30:33;13.38;;;3.60;;
79702;SDS011;69172;52.352;5.006;2023-08-20T07:33:00;13.23;;;3.15;;
79702;SDS011;69172;52.352;5.006;2023-08-20T07:35:26;12.68;;;3.92;;
79702;SDS011;69172;52.352;5.006;2023-08-20T07:37:51;13.45;;;3.22;;
79702;SDS011;69172;52.352;5.006;2023-08-20T07:40:17;10.90;;;3.22;;
79702;SDS011;69172;52.352;5.006;2023-08-20T07:42:42;18.48;;;3.50;;
79702;SDS011;69172;52.352;5.006;2023-08-20T07:45:08;17.63;;;2.95;;
79702;SDS011;69172;52.352;5.006;2023-08-20T07:47:37;13.90;;;3.13;;
79702;SDS011;69172;52.352;5.006;2023-08-20T07:50:04;13.45;;;3.08;;
79702;SDS011;69172;52.352;5.006;2023-08-20T07:52:33;15.73;;;2.95;;
79702;SDS011;69172;52.352;5.006;2023-08-20T07:54:59;12.60;;;2.35;;
79702;SDS011;69172;52.352;5.006;2023-08-20T07:57:25;13.25;;;2.08;;
79702;SDS011;69172;52.352;5.006;2023-08-20T07:59:51;12.18;;;2.38;;
79702;SDS011;69172;52.352;5.006;2023-08-20T08:02:16;15.60;;;2.35;;
79702;SDS011;69172;52.352;5.006;2023-08-20T08:04:42;8.70;;;2.55;;
79702;SDS011;69172;52.352;5.006;2023-08-20T08:07:08;15.30;;;2.42;;
79702;SDS011;69172;52.352;5.006;2023-08-20T08:09:35;14.20;;;2.33;;
79702;SDS011;69172;52.352;5.006;2023-08-20T08:12:00;6.75;;;1.75;;
79702;SDS011;69172;52.352;5.006;2023-08-20T08:14:26;11.52;;;1.75;;
79702;SDS011;69172;52.352;5.006;2023-08-20T08:16:52;7.80;;;1.67;;
79702;SDS011;69172;52.352;5.006;2023-08-20T08:19:18;8.75;;;1.95;;
79702;SDS011;69172;52.352;5.006;2023-08-20T08:21:44;17.20;;;2.63;;
79702;SDS011;69172;52.352;5.006;2023-08-20T08:24:10;8.27;;;1.90;;
79702;SDS011;69172;52.352;5.006;2023-08-20T08:26:36;11.20;;;2.17;;
79702;SDS011;69172;52.352;5.006;2023-08-20T08:29:02;9.90;;;2.33;;
79702;SDS011;69172;52.352;5.006;2023-08-20T08:31:28;9.40;;;2.03;;
79702;SDS011;69172;52.352;5.006;2023-08-20T08:33:53;11.40;;;1.90;;
79702;SDS011;69172;52.352;5.006;2023-08-20T08:36:19;11.18;;;2.22;;
79702;SDS011;69172;52.352;5.006;2023-08-20T08:38:44;10.30;;;1.80;;
79702;SDS011;69172;52.352;5.006;2023-08-20T08:41:11;8.43;;;1.85;;
79702;SDS011;69172;52.352;5.006;2023-08-20T08:43:37;13.02;;;1.98;;
79702;SDS011;69172;52.352;5.006;2023-08-20T08:46:06;8.15;;;1.85;;
79702;SDS011;69172;52.352;5.006;2023-08-20T08:48:33;11.77;;;1.67;;
79702;SDS011;69172;52.352;5.006;2023-08-20T08:51:00;12.38;;;2.00;;
79702;SDS011;69172;52.352;5.006;2023-08-20T08:53:26;12.95;;;1.85;;
79702;SDS011;69172;52.352;5.006;2023-08-20T08:55:52;8.63;;;1.90;;
79702;SDS011;69172;52.352;5.006;2023-08-20T08:58:17;10.27;;;1.70;;
79702;SDS011;69172;52.352;5.006;2023-08-20T09:00:43;9.55;;;1.83;;
79702;SDS011;69172;52.352;5.006;2023-08-20T09:03:08;8.43;;;1.63;;
79702;SDS011;69172;52.352;5.006;2023-08-20T09:05:45;11.93;;;1.80;;
79702;SDS011;69172;52.352;5.006;2023-08-20T09:08:22;8.77;;;1.92;;
79702;SDS011;69172;52.352;5.006;2023-08-20T09:10:51;6.80;;;1.33;;
79702;SDS011;69172;52.352;5.006;2023-08-20T09:13:17;10.18;;;1.70;;
79702;SDS011;69172;52.352;5.006;2023-08-20T09:15:45;8.25;;;1.60;;
79702;SDS011;69172;52.352;5.006;2023-08-20T09:18:10;10.15;;;1.73;;
79702;SDS011;69172;52.352;5.006;2023-08-20T09:20:36;10.73;;;1.92;;
79702;SDS011;69172;52.352;5.006;2023-08-20T09:23:02;8.25;;;1.52;;
79702;SDS011;69172;52.352;5.006;2023-08-20T09:25:34;10.27;;;2.00;;
79702;SDS011;69172;52.352;5.006;2023-08-20T09:28:05;13.43;;;1.75;;
79702;SDS011;69172;52.352;5.006;2023-08-20T09:30:31;9.35;;;1.85;;
79702;SDS011;69172;52.352;5.006;2023-08-20T09:33:10;8.20;;;1.67;;
79702;SDS011;69172;52.352;5.006;2023-08-20T09:35:36;7.45;;;1.45;;
79702;SDS011;69172;52.352;5.006;2023-08-20T09:38:05;9.63;;;1.77;;
79702;SDS011;69172;52.352;5.006;2023-08-20T09:40:30;10.55;;;1.92;;
79702;SDS011;69172;52.352;5.006;2023-08-20T09:42:56;13.07;;;1.73;;
79702;SDS011;69172;52.352;5.006;2023-08-20T09:45:25;9.15;;;1.55;;
79702;SDS011;69172;52.352;5.006;2023-08-20T09:47:56;8.35;;;1.30;;
79702;SDS011;69172;52.352;5.006;2023-08-20T09:50:24;10.98;;;1.85;;
79702;SDS011;69172;52.352;5.006;2023-08-20T09:53:53;9.05;;;1.67;;
79702;SDS011;69172;52.352;5.006;2023-08-20T09:56:09;6.15;;;1.23;;
79702;SDS011;69172;52.352;5.006;2023-08-20T09:58:40;8.75;;;1.30;;
79702;SDS011;69172;52.352;5.006;2023-08-20T10:01:06;8.88;;;1.25;;
79702;SDS011;69172;52.352;5.006;2023-08-20T10:03:32;7.90;;;1.85;;
79702;SDS011;69172;52.352;5.006;2023-08-20T10:05:58;10.35;;;1.48;;
79702;SDS011;69172;52.352;5.006;2023-08-20T10:08:25;5.57;;;1.10;;
79702;SDS011;69172;52.352;5.006;2023-08-20T10:10:52;8.95;;;1.50;;
79702;SDS011;69172;52.352;5.006;2023-08-20T10:13:17;5.55;;;1.05;;
79702;SDS011;69172;52.352;5.006;2023-08-20T10:15:49;6.18;;;1.33;;
79702;SDS011;69172;52.352;5.006;2023-08-20T10:18:18;5.63;;;1.45;;
79702;SDS011;69172;52.352;5.006;2023-08-20T10:20:45;10.20;;;1.65;;
79702;SDS011;69172;52.352;5.006;2023-08-20T10:23:10;8.68;;;1.60;;
79702;SDS011;69172;52.352;5.006;2023-08-20T10:25:41;7.97;;;1.30;;
79702;SDS011;69172;52.352;5.006;2023-08-20T10:33:35;10.45;;;1.65;;
79702;SDS011;69172;52.352;5.006;2023-08-20T10:36:14;10.73;;;1.73;;
79702;SDS011;69172;52.352;5.006;2023-08-20T10:38:44;6.95;;;1.05;;
79702;SDS011;69172;52.352;5.006;2023-08-20T10:41:10;9.35;;;1.10;;
79702;SDS011;69172;52.352;5.006;2023-08-20T10:48:55;9.85;;;1.63;;
79702;SDS011;69172;52.352;5.006;2023-08-20T10:51:29;9.65;;;1.45;;
79702;SDS011;69172;52.352;5.006;2023-08-20T10:56:37;5.93;;;1.33;;
79702;SDS011;69172;52.352;5.006;2023-08-20T10:59:21;7.80;;;1.40;;
79702;SDS011;69172;52.352;5.006;2023-08-20T11:01:57;6.88;;;1.60;;
79702;SDS011;69172;52.352;5.006;2023-08-20T11:04:24;9.43;;;2.25;;
79702;SDS011;69172;52.352;5.006;2023-08-20T11:06:54;13.63;;;2.60;;
79702;SDS011;69172;52.352;5.006;2023-08-20T11:09:24;6.55;;;1.35;;
79702;SDS011;69172;52.352;5.006;2023-08-20T11:11:53;7.05;;;1.67;;
79702;SDS011;69172;52.352;5.006;2023-08-20T11:14:19;7.40;;;2.20;;
79702;SDS011;69172;52.352;5.006;2023-08-20T11:16:46;9.73;;;2.20;;
79702;SDS011;69172;52.352;5.006;2023-08-20T11:19:13;8.95;;;1.40;;
79702;SDS011;69172;52.352;5.006;2023-08-20T11:21:42;7.15;;;1.30;;
79702;SDS011;69172;52.352;5.006;2023-08-20T11:24:08;7.03;;;1.38;;
79702;SDS011;69172;52.352;5.006;2023-08-20T11:26:34;9.15;;;1.90;;
79702;SDS011;69172;52.352;5.006;2023-08-20T11:29:01;7.47;;;1.63;;
79702;SDS011;69172;52.352;5.006;2023-08-20T11:31:30;6.85;;;1.17;;
79702;SDS011;69172;52.352;5.006;2023-08-20T11:33:56;7.00;;;1.20;;
79702;SDS011;69172;52.352;5.006;2023-08-20T11:36:22;8.70;;;1.33;;
79702;SDS011;69172;52.352;5.006;2023-08-20T11:38:51;6.63;;;1.40;;
79702;SDS011;69172;52.352;5.006;2023-08-20T11:41:18;6.38;;;1.00;;
79702;SDS011;69172;52.352;5.006;2023-08-20T11:43:44;7.57;;;1.15;;
79702;SDS011;69172;52.352;5.006;2023-08-20T11:46:14;7.85;;;1.40;;
79702;SDS011;69172;52.352;5.006;2023-08-20T11:51:28;5.80;;;1.20;;
79702;SDS011;69172;52.352;5.006;2023-08-20T11:53:55;6.00;;;1.20;;
79702;SDS011;69172;52.352;5.006;2023-08-20T11:56:22;6.78;;;1.52;;
79702;SDS011;69172;52.352;5.006;2023-08-20T11:58:51;8.75;;;1.55;;
79702;SDS011;69172;52.352;5.006;2023-08-20T12:01:32;8.60;;;1.80;;
79702;SDS011;69172;52.352;5.006;2023-08-20T12:04:02;11.40;;;1.85;;
79702;SDS011;69172;52.352;5.006;2023-08-20T12:06:29;5.90;;;1.30;;
79702;SDS011;69172;52.352;5.006;2023-08-20T12:08:56;5.95;;;1.42;;
79702;SDS011;69172;52.352;5.006;2023-08-20T12:11:25;5.68;;;1.77;;
79702;SDS011;69172;52.352;5.006;2023-08-20T12:13:51;11.50;;;3.20;;
79702;SDS011;69172;52.352;5.006;2023-08-20T12:16:17;9.38;;;1.40;;
79702;SDS011;69172;52.352;5.006;2023-08-20T12:18:46;6.68;;;1.20;;
79702;SDS011;69172;52.352;5.006;2023-08-20T12:21:12;8.02;;;1.88;;
79702;SDS011;69172;52.352;5.006;2023-08-20T12:23:37;5.63;;;1.50;;
79702;SDS011;69172;52.352;5.006;2023-08-20T12:26:04;7.25;;;1.15;;
79702;SDS011;69172;52.352;5.006;2023-08-20T12:28:29;6.45;;;1.02;;
79702;SDS011;69172;52.352;5.006;2023-08-20T12:30:55;6.20;;;1.40;;
79702;SDS011;69172;52.352;5.006;2023-08-20T12:33:27;8.10;;;1.38;;
79702;SDS011;69172;52.352;5.006;2023-08-20T12:35:53;10.65;;;2.33;;
79702;SDS011;69172;52.352;5.006;2023-08-20T12:38:20;10.65;;;2.53;;
79702;SDS011;69172;52.352;5.006;2023-08-20T12:40:45;8.90;;;2.03;;
79702;SDS011;69172;52.352;5.006;2023-08-20T12:43:11;12.65;;;3.00;;
79702;SDS011;69172;52.352;5.006;2023-08-20T12:45:38;9.00;;;2.92;;
79702;SDS011;69172;52.352;5.006;2023-08-20T12:48:04;12.93;;;3.20;;
79702;SDS011;69172;52.352;5.006;2023-08-20T12:50:30;12.23;;;2.00;;
79702;SDS011;69172;52.352;5.006;2023-08-20T12:52:55;9.35;;;2.00;;
79702;SDS011;69172;52.352;5.006;2023-08-20T12:55:21;7.35;;;1.13;;
79702;SDS011;69172;52.352;5.006;2023-08-20T12:57:56;6.95;;;1.88;;
79702;SDS011;69172;52.352;5.006;2023-08-20T13:00:23;7.13;;;1.48;;
79702;SDS011;69172;52.352;5.006;2023-08-20T13:02:50;7.30;;;0.90;;
79702;SDS011;69172;52.352;5.006;2023-08-20T13:05:16;5.45;;;0.95;;
79702;SDS011;69172;52.352;5.006;2023-08-20T13:07:42;5.15;;;0.90;;
79702;SDS011;69172;52.352;5.006;2023-08-20T13:10:08;6.28;;;0.80;;
79702;SDS011;69172;52.352;5.006;2023-08-20T13:12:34;3.90;;;0.80;;
79702;SDS011;69172;52.352;5.006;2023-08-20T13:15:00;5.00;;;0.80;;
79702;SDS011;69172;52.352;5.006;2023-08-20T13:17:28;6.40;;;1.08;;
79702;SDS011;69172;52.352;5.006;2023-08-20T13:19:54;6.68;;;1.40;;
79702;SDS011;69172;52.352;5.006;2023-08-20T13:22:21;4.82;;;1.05;;
79702;SDS011;69172;52.352;5.006;2023-08-20T13:24:47;6.80;;;1.30;;
79702;SDS011;69172;52.352;5.006;2023-08-20T13:27:12;7.88;;;1.23;;
79702;SDS011;69172;52.352;5.006;2023-08-20T13:29:38;7.68;;;1.00;;
79702;SDS011;69172;52.352;5.006;2023-08-20T13:32:04;6.10;;;0.90;;
79702;SDS011;69172;52.352;5.006;2023-08-20T13:34:37;6.47;;;1.08;;
79702;SDS011;69172;52.352;5.006;2023-08-20T13:37:09;7.35;;;1.02;;
79702;SDS011;69172;52.352;5.006;2023-08-20T13:39:34;7.93;;;1.52;;
79702;SDS011;69172;52.352;5.006;2023-08-20T13:42:00;7.18;;;1.10;;
79702;SDS011;69172;52.352;5.006;2023-08-20T13:47:48;3.58;;;0.85;;
79702;SDS011;69172;52.352;5.006;2023-08-20T13:50:13;5.55;;;1.00;;
79702;SDS011;69172;52.352;5.006;2023-08-20T13:52:39;6.13;;;1.40;;
79702;SDS011;69172;52.352;5.006;2023-08-20T13:55:04;6.65;;;1.35;;
79702;SDS011;69172;52.352;5.006;2023-08-20T13:57:30;7.70;;;1.40;;
79702;SDS011;69172;52.352;5.006;2023-08-20T13:59:55;7.07;;;1.30;;
79702;SDS011;69172;52.352;5.006;2023-08-20T14:02:21;7.95;;;1.10;;
79702;SDS011;69172;52.352;5.006;2023-08-20T14:04:46;5.82;;;1.40;;
79702;SDS011;69172;52.352;5.006;2023-08-20T14:07:12;5.32;;;1.40;;
79702;SDS011;69172;52.352;5.006;2023-08-20T14:09:38;7.03;;;1.10;;
79702;SDS011;69172;52.352;5.006;2023-08-20T14:12:05;8.43;;;1.30;;
79702;SDS011;69172;52.352;5.006;2023-08-20T14:14:30;4.57;;;1.00;;
79702;SDS011;69172;52.352;5.006;2023-08-20T14:16:56;7.35;;;1.38;;
79702;SDS011;69172;52.352;5.006;2023-08-20T14:19:21;10.18;;;1.63;;
79702;SDS011;69172;52.352;5.006;2023-08-20T14:21:46;6.55;;;1.20;;
79702;SDS011;69172;52.352;5.006;2023-08-20T14:24:12;7.45;;;1.40;;
79702;SDS011;69172;52.352;5.006;2023-08-20T14:26:37;8.60;;;2.50;;
79702;SDS011;69172;52.352;5.006;2023-08-20T14:29:03;7.88;;;1.65;;
79702;SDS011;69172;52.352;5.006;2023-08-20T14:31:28;7.53;;;1.48;;
79702;SDS011;69172;52.352;5.006;2023-08-20T14:33:54;6.55;;;1.20;;
79702;SDS011;69172;52.352;5.006;2023-08-20T14:36:19;7.63;;;1.55;;
79702;SDS011;69172;52.352;5.006;2023-08-20T14:38:47;8.88;;;1.23;;
79702;SDS011;69172;52.352;5.006;2023-08-20T14:41:12;8.02;;;1.42;;
79702;SDS011;69172;52.352;5.006;2023-08-20T14:43:38;11.40;;;1.88;;
79702;SDS011;69172;52.352;5.006;2023-08-20T14:46:03;7.80;;;1.63;;
79702;SDS011;69172;52.352;5.006;2023-08-20T14:48:28;9.73;;;2.25;;
79702;SDS011;69172;52.352;5.006;2023-08-20T14:50:54;8.15;;;1.55;;
79702;SDS011;69172;52.352;5.006;2023-08-20T14:53:19;8.02;;;1.40;;
79702;SDS011;69172;52.352;5.006;2023-08-20T14:55:45;8.13;;;1.40;;
79702;SDS011;69172;52.352;5.006;2023-08-20T14:58:11;5.57;;;1.40;;
79702;SDS011;69172;52.352;5.006;2023-08-20T15:00:37;8.95;;;1.98;;
79702;SDS011;69172;52.352;5.006;2023-08-20T15:03:02;6.30;;;1.70;;
79702;SDS011;69172;52.352;5.006;2023-08-20T15:05:28;4.53;;;1.10;;
79702;SDS011;69172;52.352;5.006;2023-08-20T15:07:54;9.40;;;1.60;;
79702;SDS011;69172;52.352;5.006;2023-08-20T15:10:19;6.60;;;1.30;;